sensor_id;sensor_type;location;lat;lon;timestamp;pressure;altitude;pressure_sealevel;temperature;humidity
73457;BME280;61691;53.072;6.582;2024-02-26T00:00:39;100299.84;;;4.07;89.45
73457;BME280;61691;53.072;6.582;2024-02-26T00:03:07;100232.22;;;3.62;89.40
73457;BME280;61691;53.072;6.582;2024-02-26T00:05:34;100287.59;;;3.95;89.74
73457;BME280;61691;53.072;6.582;2024-02-26T00:08:01;100294.09;;;4.02;89.61
73457;BME280;61691;53.072;6.582;2024-02-26T00:10:31;100294.09;;;4.02;89.68
73457;BME280;61691;53.072;6.582;2024-02-26T00:12:58;100301.88;;;4.04;90.33
73457;BME280;61691;53.072;6.582;2024-02-26T00:15:26;100307.94;;;4.04;90.23
73457;BME280;61691;53.072;6.582;2024-02-26T00:17:54;100311.09;;;4.09;90.42
73457;BME280;61691;53.072;6.582;2024-02-26T00:20:21;100295.03;;;4.01;90.53
73457;BME280;61691;53.072;6.582;2024-02-26T00:22:48;100312.03;;;4.08;90.50
73457;BME280;61691;53.072;6.582;2024-02-26T00:25:14;100316.13;;;4.12;90.86
73457;BME280;61691;53.072;6.582;2024-02-26T00:27:41;100295.78;;;4.03;91.33
73457;BME280;61691;53.072;6.582;2024-02-26T00:30:08;100296.28;;;4.08;91.49
73457;BME280;61691;53.072;6.582;2024-02-26T00:32:35;100301.09;;;4.14;91.30
73457;BME280;61691;53.072;6.582;2024-02-26T00:35:02;100292.81;;;4.08;91.72
73457;BME280;61691;53.072;6.582;2024-02-26T00:37:29;100303.72;;;4.14;92.08
73457;BME280;61691;53.072;6.582;2024-02-26T00:39:56;100284.34;;;4.04;91.73
73457;BME280;61691;53.072;6.582;2024-02-26T00:42:23;100302.06;;;4.13;92.28
73457;BME280;61691;53.072;6.582;2024-02-26T00:44:49;100298.59;;;4.13;92.77
73457;BME280;61691;53.072;6.582;2024-02-26T00:47:16;100293.91;;;4.05;92.23
73457;BME280;61691;53.072;6.582;2024-02-26T00:49:43;100315.69;;;4.18;92.80
73457;BME280;61691;53.072;6.582;2024-02-26T00:52:09;100290.09;;;4.09;92.64
73457;BME280;61691;53.072;6.582;2024-02-26T00:54:36;100302.78;;;4.15;92.65
73457;BME280;61691;53.072;6.582;2024-02-26T00:57:03;100306.25;;;4.16;93.25
73457;BME280;61691;53.072;6.582;2024-02-26T00:59:29;100302.06;;;4.13;93.28
73457;BME280;61691;53.072;6.582;2024-02-26T01:01:56;100304.91;;;4.10;93.32
73457;BME280;61691;53.072;6.582;2024-02-26T01:04:25;100309.19;;;4.11;93.25
73457;BME280;61691;53.072;6.582;2024-02-26T01:06:51;100300.59;;;4.09;94.15
73457;BME280;61691;53.072;6.582;2024-02-26T01:09:18;100318.53;;;4.15;93.63
73457;BME280;61691;53.072;6.582;2024-02-26T01:11:45;100302.59;;;4.06;93.52
73457;BME280;61691;53.072;6.582;2024-02-26T01:14:13;100224.50;;;3.60;93.16
73457;BME280;61691;53.072;6.582;2024-02-26T01:16:40;100320.53;;;4.12;93.81
73457;BME280;61691;53.072;6.582;2024-02-26T01:19:06;100314.88;;;4.05;94.35
73457;BME280;61691;53.072;6.582;2024-02-26T01:21:33;100318.00;;;4.10;93.95
73457;BME280;61691;53.072;6.582;2024-02-26T01:24:00;100324.94;;;4.11;94.10
73457;BME280;61691;53.072;6.582;2024-02-26T01:26:27;100324.63;;;4.03;94.03
73457;BME280;61691;53.072;6.582;2024-02-26T01:28:54;100310.47;;;3.93;94.10
73457;BME280;61691;53.072;6.582;2024-02-26T01:31:22;100326.94;;;3.95;94.11
73457;BME280;61691;53.072;6.582;2024-02-26T01:33:49;100332.91;;;3.97;94.30
73457;BME280;61691;53.072;6.582;2024-02-26T01:36:16;100309.00;;;3.89;93.94
73457;BME280;61691;53.072;6.582;2024-02-26T01:38:42;100330.28;;;3.97;93.79
73457;BME280;61691;53.072;6.582;2024-02-26T01:41:09;100338.78;;;4.01;94.20
73457;BME280;61691;53.072;6.582;2024-02-26T01:43:36;100339.41;;;4.04;94.33
73457;BME280;61691;53.072;6.582;2024-02-26T01:46:03;100256.88;;;3.46;94.21
73457;BME280;61691;53.072;6.582;2024-02-26T01:48:30;100333.13;;;3.94;94.51
73457;BME280;61691;53.072;6.582;2024-02-26T01:50:57;100307.53;;;3.85;94.23
73457;BME280;61691;53.072;6.582;2024-02-26T01:53:24;100324.09;;;3.85;94.45
73457;BME280;61691;53.072;6.582;2024-02-26T01:55:51;100326.63;;;3.87;94.68
73457;BME280;61691;53.072;6.582;2024-02-26T01:58:18;100339.19;;;3.95;94.64
73457;BME280;61691;53.072;6.582;2024-02-26T02:00:45;100351.28;;;3.97;94.63
73457;BME280;61691;53.072;6.582;2024-02-26T02:03:12;100351.28;;;3.97;94.27
73457;BME280;61691;53.072;6.582;2024-02-26T02:05:39;100346.41;;;3.91;94.78
73457;BME280;61691;53.072;6.582;2024-02-26T02:08:13;100346.66;;;3.88;95.17
73457;BME280;61691;53.072;6.582;2024-02-26T02:10:43;100345.81;;;3.87;94.67
73457;BME280;61691;53.072;6.582;2024-02-26T02:13:10;100292.00;;;3.57;94.85
73457;BME280;61691;53.072;6.582;2024-02-26T02:15:37;100332.28;;;3.81;94.99
73457;BME280;61691;53.072;6.582;2024-02-26T02:18:04;100337.94;;;3.87;94.50
73457;BME280;61691;53.072;6.582;2024-02-26T02:20:32;100242.06;;;3.33;94.46
73457;BME280;61691;53.072;6.582;2024-02-26T02:23:00;100326.81;;;3.84;94.93
73457;BME280;61691;53.072;6.582;2024-02-26T02:25:27;100316.31;;;3.71;94.77
73457;BME280;61691;53.072;6.582;2024-02-26T02:27:55;100350.72;;;3.92;94.73
73457;BME280;61691;53.072;6.582;2024-02-26T02:30:25;100350.63;;;3.94;94.80
73457;BME280;61691;53.072;6.582;2024-02-26T02:32:53;100351.66;;;3.91;95.13
73457;BME280;61691;53.072;6.582;2024-02-26T02:35:20;100348.34;;;3.89;94.95
73457;BME280;61691;53.072;6.582;2024-02-26T02:37:47;100334.81;;;3.82;95.01
73457;BME280;61691;53.072;6.582;2024-02-26T02:40:14;100356.19;;;3.89;94.99
73457;BME280;61691;53.072;6.582;2024-02-26T02:42:41;100350.13;;;3.88;94.94
73457;BME280;61691;53.072;6.582;2024-02-26T02:45:08;100344.66;;;3.79;95.00
73457;BME280;61691;53.072;6.582;2024-02-26T02:47:38;100361.63;;;3.86;94.90
73457;BME280;61691;53.072;6.582;2024-02-26T02:50:05;100372.88;;;3.88;94.73
73457;BME280;61691;53.072;6.582;2024-02-26T02:52:32;100382.19;;;3.92;94.73
73457;BME280;61691;53.072;6.582;2024-02-26T02:54:59;100389.88;;;3.95;94.62
73457;BME280;61691;53.072;6.582;2024-02-26T02:57:25;100381.56;;;3.88;95.01
73457;BME280;61691;53.072;6.582;2024-02-26T02:59:52;100387.84;;;3.99;94.75
73457;BME280;61691;53.072;6.582;2024-02-26T03:02:19;100387.06;;;3.98;94.59
73457;BME280;61691;53.072;6.582;2024-02-26T03:04:45;100399.19;;;3.99;94.63
73457;BME280;61691;53.072;6.582;2024-02-26T03:07:12;100398.91;;;4.04;94.45
73457;BME280;61691;53.072;6.582;2024-02-26T03:09:39;100388.69;;;3.99;94.48
73457;BME280;61691;53.072;6.582;2024-02-26T03:12:06;100399.84;;;4.03;94.50
73457;BME280;61691;53.072;6.582;2024-02-26T03:14:33;100378.63;;;3.93;94.32
73457;BME280;61691;53.072;6.582;2024-02-26T03:16:59;100408.13;;;4.09;94.32
73457;BME280;61691;53.072;6.582;2024-02-26T03:19:26;100412.63;;;4.07;94.51
73457;BME280;61691;53.072;6.582;2024-02-26T03:21:53;100414.13;;;4.11;94.15
73457;BME280;61691;53.072;6.582;2024-02-26T03:24:20;100372.78;;;3.89;94.16
73457;BME280;61691;53.072;6.582;2024-02-26T03:26:47;100389.53;;;4.00;93.97
73457;BME280;61691;53.072;6.582;2024-02-26T03:29:13;100404.66;;;4.09;93.64
73457;BME280;61691;53.072;6.582;2024-02-26T03:31:40;100395.63;;;4.00;93.79
73457;BME280;61691;53.072;6.582;2024-02-26T03:34:07;100407.50;;;4.06;93.78
73457;BME280;61691;53.072;6.582;2024-02-26T03:36:34;100408.66;;;4.02;93.77
73457;BME280;61691;53.072;6.582;2024-02-26T03:39:00;100416.63;;;4.00;94.00
73457;BME280;61691;53.072;6.582;2024-02-26T03:41:30;100407.56;;;3.92;93.95
73457;BME280;61691;53.072;6.582;2024-02-26T03:43:58;100423.53;;;4.01;93.44
73457;BME280;61691;53.072;6.582;2024-02-26T03:46:25;100415.16;;;3.96;93.66
73457;BME280;61691;53.072;6.582;2024-02-26T03:48:52;100413.28;;;3.98;93.60
73457;BME280;61691;53.072;6.582;2024-02-26T03:51:18;100406.72;;;3.91;93.39
73457;BME280;61691;53.072;6.582;2024-02-26T03:53:45;100417.03;;;3.94;93.36
73457;BME280;61691;53.072;6.582;2024-02-26T03:56:12;100375.44;;;3.63;93.41
73457;BME280;61691;53.072;6.582;2024-02-26T03:58:39;100435.47;;;3.93;93.42
73457;BME280;61691;53.072;6.582;2024-02-26T04:01:09;100415.34;;;3.80;93.31
73457;BME280;61691;53.072;6.582;2024-02-26T04:03:36;100433.91;;;3.90;93.29
73457;BME280;61691;53.072;6.582;2024-02-26T04:06:03;100399.78;;;3.65;93.46
73457;BME280;61691;53.072;6.582;2024-02-26T04:08:30;100439.34;;;3.87;93.03
73457;BME280;61691;53.072;6.582;2024-02-26T04:10:57;100445.94;;;3.80;93.45
73457;BME280;61691;53.072;6.582;2024-02-26T04:13:24;100452.88;;;3.81;92.88
73457;BME280;61691;53.072;6.582;2024-02-26T04:15:51;100449.50;;;3.79;92.80
73457;BME280;61691;53.072;6.582;2024-02-26T04:18:17;100457.78;;;3.73;92.89
73457;BME280;61691;53.072;6.582;2024-02-26T04:20:44;100459.97;;;3.66;93.48
73457;BME280;61691;53.072;6.582;2024-02-26T04:23:11;100452.19;;;3.65;92.38
73457;BME280;61691;53.072;6.582;2024-02-26T04:25:38;100473.41;;;3.74;92.95
73457;BME280;61691;53.072;6.582;2024-02-26T04:28:05;100473.59;;;3.71;92.89
73457;BME280;61691;53.072;6.582;2024-02-26T04:30:31;100436.53;;;3.50;92.83
73457;BME280;61691;53.072;6.582;2024-02-26T04:32:58;100456.16;;;3.58;92.87
73457;BME280;61691;53.072;6.582;2024-02-26T04:35:25;100469.59;;;3.66;92.66
73457;BME280;61691;53.072;6.582;2024-02-26T04:37:51;100471.47;;;3.64;92.57
73457;BME280;61691;53.072;6.582;2024-02-26T04:40:18;100480.84;;;3.68;92.22
73457;BME280;61691;53.072;6.582;2024-02-26T04:42:45;100474.19;;;3.62;92.39
73457;BME280;61691;53.072;6.582;2024-02-26T04:45:11;100479.56;;;3.61;92.61
73457;BME280;61691;53.072;6.582;2024-02-26T04:47:38;100481.53;;;3.57;92.88
73457;BME280;61691;53.072;6.582;2024-02-26T04:50:06;100496.94;;;3.62;92.59
73457;BME280;61691;53.072;6.582;2024-02-26T04:52:32;100484.22;;;3.56;92.72
73457;BME280;61691;53.072;6.582;2024-02-26T04:54:59;100492.00;;;3.57;92.76
73457;BME280;61691;53.072;6.582;2024-02-26T04:57:26;100494.81;;;3.54;92.80
73457;BME280;61691;53.072;6.582;2024-02-26T04:59:53;100497.34;;;3.56;92.61
73457;BME280;61691;53.072;6.582;2024-02-26T05:02:20;100489.69;;;3.53;92.49
73457;BME280;61691;53.072;6.582;2024-02-26T05:04:46;100502.94;;;3.64;92.27
73457;BME280;61691;53.072;6.582;2024-02-26T05:07:13;100489.13;;;3.47;92.64
73457;BME280;61691;53.072;6.582;2024-02-26T05:09:40;100488.19;;;3.48;92.39
73457;BME280;61691;53.072;6.582;2024-02-26T05:12:09;100515.19;;;3.63;92.77
73457;BME280;61691;53.072;6.582;2024-02-26T05:14:36;100514.56;;;3.60;92.80
73457;BME280;61691;53.072;6.582;2024-02-26T05:17:02;100512.56;;;3.63;92.22
73457;BME280;61691;53.072;6.582;2024-02-26T05:19:29;100512.78;;;3.60;92.61
73457;BME280;61691;53.072;6.582;2024-02-26T05:21:56;100513.63;;;3.61;92.48
73457;BME280;61691;53.072;6.582;2024-02-26T05:24:23;100519.91;;;3.58;92.40
73457;BME280;61691;53.072;6.582;2024-02-26T05:26:50;100518.13;;;3.59;92.50
73457;BME280;61691;53.072;6.582;2024-02-26T05:29:17;100525.59;;;3.65;92.55
73457;BME280;61691;53.072;6.582;2024-02-26T05:31:43;100527.28;;;3.66;92.35
73457;BME280;61691;53.072;6.582;2024-02-26T05:34:10;100530.06;;;3.63;92.36
73457;BME280;61691;53.072;6.582;2024-02-26T05:36:37;100524.75;;;3.64;92.34
73457;BME280;61691;53.072;6.582;2024-02-26T05:39:04;100509.91;;;3.50;92.40
73457;BME280;61691;53.072;6.582;2024-02-26T05:41:31;100505.59;;;3.49;92.29
73457;BME280;61691;53.072;6.582;2024-02-26T05:43:58;100549.84;;;3.68;92.12
73457;BME280;61691;53.072;6.582;2024-02-26T05:46:24;100554.03;;;3.71;92.00
73457;BME280;61691;53.072;6.582;2024-02-26T05:48:53;100556.84;;;3.68;92.05
73457;BME280;61691;53.072;6.582;2024-02-26T05:51:20;100546.56;;;3.65;92.06
73457;BME280;61691;53.072;6.582;2024-02-26T05:53:47;100513.09;;;3.41;92.18
73457;BME280;61691;53.072;6.582;2024-02-26T05:56:23;100499.84;;;3.30;92.02
73457;BME280;61691;53.072;6.582;2024-02-26T05:58:50;100541.88;;;3.56;92.03
73457;BME280;61691;53.072;6.582;2024-02-26T06:01:18;100567.13;;;3.71;92.50
73457;BME280;61691;53.072;6.582;2024-02-26T06:03:45;100557.88;;;3.65;92.09
73457;BME280;61691;53.072;6.582;2024-02-26T06:06:12;100560.50;;;3.65;92.10
73457;BME280;61691;53.072;6.582;2024-02-26T06:08:39;100542.28;;;3.49;91.70
73457;BME280;61691;53.072;6.582;2024-02-26T06:11:06;100579.47;;;3.69;91.89
73457;BME280;61691;53.072;6.582;2024-02-26T06:13:34;100555.94;;;3.55;92.11
73457;BME280;61691;53.072;6.582;2024-02-26T06:16:01;100574.25;;;3.69;92.04
73457;BME280;61691;53.072;6.582;2024-02-26T06:18:28;100582.84;;;3.71;91.69
73457;BME280;61691;53.072;6.582;2024-02-26T06:20:55;100582.94;;;3.69;91.81
73457;BME280;61691;53.072;6.582;2024-02-26T06:23:22;100587.16;;;3.72;91.73
73457;BME280;61691;53.072;6.582;2024-02-26T06:25:49;100584.72;;;3.69;91.83
73457;BME280;61691;53.072;6.582;2024-02-26T06:28:16;100585.88;;;3.65;91.44
73457;BME280;61691;53.072;6.582;2024-02-26T06:30:42;100552.59;;;3.53;91.39
73457;BME280;61691;53.072;6.582;2024-02-26T06:33:09;100594.84;;;3.75;91.04
73457;BME280;61691;53.072;6.582;2024-02-26T06:35:37;100592.41;;;3.72;91.61
73457;BME280;61691;53.072;6.582;2024-02-26T06:38:04;100583.06;;;3.68;91.36
73457;BME280;61691;53.072;6.582;2024-02-26T06:40:31;100583.25;;;3.65;91.46
73457;BME280;61691;53.072;6.582;2024-02-26T06:42:57;100592.41;;;3.72;91.01
73457;BME280;61691;53.072;6.582;2024-02-26T06:45:24;100600.28;;;3.72;91.37
73457;BME280;61691;53.072;6.582;2024-02-26T06:47:51;100607.09;;;3.74;91.01
73457;BME280;61691;53.072;6.582;2024-02-26T06:50:18;100595.97;;;3.71;91.19
73457;BME280;61691;53.072;6.582;2024-02-26T06:52:45;100610.56;;;3.75;91.27
73457;BME280;61691;53.072;6.582;2024-02-26T06:55:13;100611.50;;;3.74;91.10
73457;BME280;61691;53.072;6.582;2024-02-26T06:57:40;100607.66;;;3.79;90.92
73457;BME280;61691;53.072;6.582;2024-02-26T07:00:07;100618.13;;;3.79;90.91
73457;BME280;61691;53.072;6.582;2024-02-26T07:02:34;100621.31;;;3.84;90.89
73457;BME280;61691;53.072;6.582;2024-02-26T07:05:05;100626.28;;;3.89;91.53
73457;BME280;61691;53.072;6.582;2024-02-26T07:07:32;100620.66;;;3.81;91.39
73457;BME280;61691;53.072;6.582;2024-02-26T07:09:58;100634.31;;;3.86;90.80
73457;BME280;61691;53.072;6.582;2024-02-26T07:12:25;100642.72;;;3.91;91.19
73457;BME280;61691;53.072;6.582;2024-02-26T07:14:52;100646.94;;;3.94;90.74
73457;BME280;61691;53.072;6.582;2024-02-26T07:17:19;100661.66;;;3.96;90.74
73457;BME280;61691;53.072;6.582;2024-02-26T07:19:46;100650.72;;;3.89;90.83
73457;BME280;61691;53.072;6.582;2024-02-26T07:22:12;100663.34;;;3.97;90.74
73457;BME280;61691;53.072;6.582;2024-02-26T07:24:40;100670.81;;;4.03;90.72
73457;BME280;61691;53.072;6.582;2024-02-26T07:27:06;100672.50;;;4.04;90.53
73457;BME280;61691;53.072;6.582;2024-02-26T07:29:33;100648.19;;;3.88;90.45
73457;BME280;61691;53.072;6.582;2024-02-26T07:32:00;100621.25;;;3.72;90.07
73457;BME280;61691;53.072;6.582;2024-02-26T07:34:27;100671.00;;;4.00;90.53
73457;BME280;61691;53.072;6.582;2024-02-26T07:36:56;100670.28;;;3.98;90.27
73457;BME280;61691;53.072;6.582;2024-02-26T07:39:23;100682.91;;;4.06;90.33
73457;BME280;61691;53.072;6.582;2024-02-26T07:41:50;100657.34;;;3.95;90.28
73457;BME280;61691;53.072;6.582;2024-02-26T07:44:19;100666.50;;;4.02;90.33
73457;BME280;61691;53.072;6.582;2024-02-26T07:46:47;100672.50;;;4.04;90.32
73457;BME280;61691;53.072;6.582;2024-02-26T07:49:13;100662.03;;;4.04;90.09
73457;BME280;61691;53.072;6.582;2024-02-26T07:51:40;100675.59;;;4.11;89.99
73457;BME280;61691;53.072;6.582;2024-02-26T07:54:07;100667.91;;;4.08;90.40
73457;BME280;61691;53.072;6.582;2024-02-26T07:56:34;100652.63;;;4.00;90.22
73457;BME280;61691;53.072;6.582;2024-02-26T07:59:01;100657.50;;;4.06;90.39
73457;BME280;61691;53.072;6.582;2024-02-26T08:01:28;100660.69;;;4.11;90.54
73457;BME280;61691;53.072;6.582;2024-02-26T08:03:55;100674.34;;;4.16;90.28
73457;BME280;61691;53.072;6.582;2024-02-26T08:06:23;100668.34;;;4.14;90.45
73457;BME280;61691;53.072;6.582;2024-02-26T08:08:50;100611.88;;;3.82;90.55
73457;BME280;61691;53.072;6.582;2024-02-26T08:11:17;100663.22;;;4.13;90.51
73457;BME280;61691;53.072;6.582;2024-02-26T08:13:43;100686.78;;;4.27;90.18
73457;BME280;61691;53.072;6.582;2024-02-26T08:16:10;100613.75;;;3.80;90.30
73457;BME280;61691;53.072;6.582;2024-02-26T08:18:38;100672.88;;;4.12;90.46
73457;BME280;61691;53.072;6.582;2024-02-26T08:21:05;100698.13;;;4.27;90.34
73457;BME280;61691;53.072;6.582;2024-02-26T08:23:32;100694.94;;;4.22;89.91
73457;BME280;61691;53.072;6.582;2024-02-26T08:25:59;100689.91;;;4.19;90.14
73457;BME280;61691;53.072;6.582;2024-02-26T08:28:26;100690.09;;;4.16;89.84
73457;BME280;61691;53.072;6.582;2024-02-26T08:30:52;100705.88;;;4.29;90.03
73457;BME280;61691;53.072;6.582;2024-02-26T08:33:19;100715.16;;;4.35;90.13
73457;BME280;61691;53.072;6.582;2024-02-26T08:35:46;100697.28;;;4.27;90.22
73457;BME280;61691;53.072;6.582;2024-02-26T08:38:13;100680.78;;;4.25;89.64
73457;BME280;61691;53.072;6.582;2024-02-26T08:40:39;100697.16;;;4.28;89.86
73457;BME280;61691;53.072;6.582;2024-02-26T08:43:06;100723.56;;;4.40;89.72
73457;BME280;61691;53.072;6.582;2024-02-26T08:45:33;100719.25;;;4.39;89.29
73457;BME280;61691;53.072;6.582;2024-02-26T08:48:00;100707.16;;;4.36;89.23
73457;BME280;61691;53.072;6.582;2024-02-26T08:50:27;100672.88;;;4.12;89.60
73457;BME280;61691;53.072;6.582;2024-02-26T08:52:53;100662.56;;;4.09;89.17
73457;BME280;61691;53.072;6.582;2024-02-26T08:55:20;100736.88;;;4.51;88.98
73457;BME280;61691;53.072;6.582;2024-02-26T08:57:47;100735.81;;;4.53;89.14
73457;BME280;61691;53.072;6.582;2024-02-26T09:00:15;100735.34;;;4.47;88.59
73457;BME280;61691;53.072;6.582;2024-02-26T09:02:44;100748.84;;;4.55;88.22
73457;BME280;61691;53.072;6.582;2024-02-26T09:05:11;100738.53;;;4.52;88.64
73457;BME280;61691;53.072;6.582;2024-02-26T09:07:38;100739.13;;;4.43;88.38
73457;BME280;61691;53.072;6.582;2024-02-26T09:10:05;100772.16;;;4.59;88.19
73457;BME280;61691;53.072;6.582;2024-02-26T09:12:32;100752.22;;;4.57;87.63
73457;BME280;61691;53.072;6.582;2024-02-26T09:14:59;100744.00;;;4.49;88.01
73457;BME280;61691;53.072;6.582;2024-02-26T09:17:26;100763.78;;;4.67;87.74
73457;BME280;61691;53.072;6.582;2024-02-26T09:19:52;100766.41;;;4.67;87.53
73457;BME280;61691;53.072;6.582;2024-02-26T09:22:19;100766.22;;;4.70;87.16
73457;BME280;61691;53.072;6.582;2024-02-26T09:24:46;100763.59;;;4.70;87.06
73457;BME280;61691;53.072;6.582;2024-02-26T09:27:13;100759.28;;;4.69;87.04
73457;BME280;61691;53.072;6.582;2024-02-26T09:29:39;100778.56;;;4.82;86.89
73457;BME280;61691;53.072;6.582;2024-02-26T09:32:06;100769.97;;;4.80;86.87
73457;BME280;61691;53.072;6.582;2024-02-26T09:34:33;100792.25;;;4.87;87.03
73457;BME280;61691;53.072;6.582;2024-02-26T09:37:00;100794.16;;;4.98;86.99
73457;BME280;61691;53.072;6.582;2024-02-26T09:39:41;100803.63;;;5.00;86.47
73457;BME280;61691;53.072;6.582;2024-02-26T09:42:09;100792.59;;;4.95;85.64
73457;BME280;61691;53.072;6.582;2024-02-26T09:44:40;100788.88;;;4.85;85.26
73457;BME280;61691;53.072;6.582;2024-02-26T09:47:10;100799.31;;;4.99;85.29
73457;BME280;61691;53.072;6.582;2024-02-26T09:49:38;100801.19;;;4.97;85.40
73457;BME280;61691;53.072;6.582;2024-02-26T09:52:06;100792.03;;;4.90;84.89
73457;BME280;61691;53.072;6.582;2024-02-26T09:54:32;100811.94;;;4.94;84.69
73457;BME280;61691;53.072;6.582;2024-02-26T09:57:02;100819.00;;;5.06;84.85
73457;BME280;61691;53.072;6.582;2024-02-26T09:59:39;100795.94;;;4.97;84.50
73457;BME280;61691;53.072;6.582;2024-02-26T10:02:13;100800.75;;;4.91;84.45
73457;BME280;61691;53.072;6.582;2024-02-26T10:04:41;100825.75;;;5.11;84.69
73457;BME280;61691;53.072;6.582;2024-02-26T10:07:13;100836.03;;;5.14;84.48
73457;BME280;61691;53.072;6.582;2024-02-26T10:09:40;100846.56;;;5.14;84.07
73457;BME280;61691;53.072;6.582;2024-02-26T10:12:10;100850.13;;;5.13;83.82
73457;BME280;61691;53.072;6.582;2024-02-26T10:14:42;100846.38;;;5.17;84.14
73457;BME280;61691;53.072;6.582;2024-02-26T10:17:09;100847.22;;;5.17;84.04
73457;BME280;61691;53.072;6.582;2024-02-26T10:19:36;100837.09;;;5.11;84.16
73457;BME280;61691;53.072;6.582;2024-02-26T10:22:05;100848.91;;;5.18;83.98
73457;BME280;61691;53.072;6.582;2024-02-26T10:24:32;100816.63;;;4.89;83.38
73457;BME280;61691;53.072;6.582;2024-02-26T10:26:59;100839.81;;;5.10;83.38
73457;BME280;61691;53.072;6.582;2024-02-26T10:29:26;100859.09;;;5.23;83.82
73457;BME280;61691;53.072;6.582;2024-02-26T10:31:53;100862.56;;;5.23;83.24
73457;BME280;61691;53.072;6.582;2024-02-26T10:34:20;100855.38;;;5.13;82.65
73457;BME280;61691;53.072;6.582;2024-02-26T10:36:47;100850.53;;;5.06;82.75
73457;BME280;61691;53.072;6.582;2024-02-26T10:39:20;100853.59;;;5.13;82.62
73457;BME280;61691;53.072;6.582;2024-02-26T10:41:48;100833.34;;;4.88;82.50
73457;BME280;61691;53.072;6.582;2024-02-26T10:44:15;100870.78;;;5.19;82.55
73457;BME280;61691;53.072;6.582;2024-02-26T10:46:46;100887.06;;;5.24;82.15
73457;BME280;61691;53.072;6.582;2024-02-26T10:49:15;100863.38;;;5.11;82.01
73457;BME280;61691;53.072;6.582;2024-02-26T10:51:54;100856.53;;;5.09;82.07
73457;BME280;61691;53.072;6.582;2024-02-26T10:54:24;100873.00;;;5.25;82.72
73457;BME280;61691;53.072;6.582;2024-02-26T10:56:53;100888.72;;;5.39;82.64
73457;BME280;61691;53.072;6.582;2024-02-26T10:59:22;100879.75;;;5.41;82.31
73457;BME280;61691;53.072;6.582;2024-02-26T11:01:48;100863.78;;;5.32;82.09
73457;BME280;61691;53.072;6.582;2024-02-26T11:04:16;100862.91;;;5.31;82.12
73457;BME280;61691;53.072;6.582;2024-02-26T11:06:45;100876.09;;;5.44;81.90
73457;BME280;61691;53.072;6.582;2024-02-26T11:09:13;100892.97;;;5.54;81.89
73457;BME280;61691;53.072;6.582;2024-02-26T11:11:41;100901.81;;;5.66;81.60
73457;BME280;61691;53.072;6.582;2024-02-26T11:14:08;100911.81;;;5.73;81.86
73457;BME280;61691;53.072;6.582;2024-02-26T11:16:37;100910.88;;;5.74;81.63
73457;BME280;61691;53.072;6.582;2024-02-26T11:19:06;100907.06;;;5.66;80.97
73457;BME280;61691;53.072;6.582;2024-02-26T11:21:36;100892.75;;;5.57;81.14
73457;BME280;61691;53.072;6.582;2024-02-26T11:24:11;100852.09;;;5.36;81.28
73457;BME280;61691;53.072;6.582;2024-02-26T11:26:55;100919.31;;;5.79;80.97
73457;BME280;61691;53.072;6.582;2024-02-26T11:29:34;100925.69;;;5.90;80.87
73457;BME280;61691;53.072;6.582;2024-02-26T11:32:05;100916.84;;;5.91;80.86
73457;BME280;61691;53.072;6.582;2024-02-26T11:34:32;100895.75;;;5.78;79.94
73457;BME280;61691;53.072;6.582;2024-02-26T11:37:14;100926.63;;;5.89;80.59
73457;BME280;61691;53.072;6.582;2024-02-26T11:39:41;100930.75;;;5.93;79.87
73457;BME280;61691;53.072;6.582;2024-02-26T11:42:09;100943.16;;;5.91;78.81
73457;BME280;61691;53.072;6.582;2024-02-26T11:44:37;100928.69;;;5.83;79.69
73457;BME280;61691;53.072;6.582;2024-02-26T11:47:12;100923.13;;;5.88;79.63
73457;BME280;61691;53.072;6.582;2024-02-26T11:49:39;100941.19;;;6.07;79.67
73457;BME280;61691;53.072;6.582;2024-02-26T11:52:10;100919.06;;;5.97;78.74
73457;BME280;61691;53.072;6.582;2024-02-26T11:54:44;100935.50;;;6.13;79.16
73457;BME280;61691;53.072;6.582;2024-02-26T11:57:37;100936.88;;;6.18;79.12
73457;BME280;61691;53.072;6.582;2024-02-26T12:02:49;100932.44;;;6.19;77.85
73457;BME280;61691;53.072;6.582;2024-02-26T12:05:22;100920.47;;;6.15;78.31
73457;BME280;61691;53.072;6.582;2024-02-26T12:07:54;100923.00;;;6.29;78.48
73457;BME280;61691;53.072;6.582;2024-02-26T12:10:32;100926.75;;;6.25;77.83
73457;BME280;61691;53.072;6.582;2024-02-26T12:13:08;100927.00;;;6.22;77.92
73457;BME280;61691;53.072;6.582;2024-02-26T12:15:40;100929.94;;;6.30;78.35
73457;BME280;61691;53.072;6.582;2024-02-26T12:18:09;100923.84;;;6.30;77.73
73457;BME280;61691;53.072;6.582;2024-02-26T12:20:38;100901.28;;;6.13;77.26
73457;BME280;61691;53.072;6.582;2024-02-26T12:23:05;100931.63;;;6.31;77.89
73457;BME280;61691;53.072;6.582;2024-02-26T12:25:33;100909.19;;;6.26;78.06
73457;BME280;61691;53.072;6.582;2024-02-26T12:28:00;100882.53;;;6.05;77.52
73457;BME280;61691;53.072;6.582;2024-02-26T12:30:26;100930.56;;;6.21;78.01
73457;BME280;61691;53.072;6.582;2024-02-26T12:32:56;100938.22;;;6.24;78.54
73457;BME280;61691;53.072;6.582;2024-02-26T12:35:24;100932.25;;;6.22;78.57
73457;BME280;61691;53.072;6.582;2024-02-26T12:37:52;100945.84;;;6.29;78.43
73457;BME280;61691;53.072;6.582;2024-02-26T12:40:20;100945.75;;;6.30;78.32
73457;BME280;61691;53.072;6.582;2024-02-26T12:42:47;100954.56;;;6.29;78.52
73457;BME280;61691;53.072;6.582;2024-02-26T12:45:15;100899.16;;;5.93;78.47
73457;BME280;61691;53.072;6.582;2024-02-26T12:47:43;100957.63;;;6.23;78.79
73457;BME280;61691;53.072;6.582;2024-02-26T12:50:12;100940.00;;;6.11;78.48
73457;BME280;61691;53.072;6.582;2024-02-26T12:52:41;100960.97;;;6.25;78.51
73457;BME280;61691;53.072;6.582;2024-02-26T12:55:12;100947.72;;;6.14;78.70
73457;BME280;61691;53.072;6.582;2024-02-26T12:57:41;100897.91;;;5.71;77.74
73457;BME280;61691;53.072;6.582;2024-02-26T13:00:12;100950.94;;;5.92;77.62
73457;BME280;61691;53.072;6.582;2024-02-26T13:02:42;100964.19;;;5.91;77.96
73457;BME280;61691;53.072;6.582;2024-02-26T13:05:12;100965.22;;;5.88;78.11